createdAt,value
2022-11-05T00:01:32.752Z,5.60
2022-11-05T00:04:18.930Z,5.60
2022-11-05T00:07:04.577Z,5.60
2022-11-05T00:09:32.723Z,5.60
2022-11-05T00:12:20.593Z,5.50
2022-11-05T00:15:05.685Z,5.50
2022-11-05T00:17:32.412Z,5.40
2022-11-05T00:19:59.237Z,5.30
2022-11-05T00:22:44.580Z,5.20
2022-11-05T00:25:14.106Z,5.10
2022-11-05T00:27:41.128Z,5.10
2022-11-05T00:30:09.231Z,5.10
2022-11-05T00:32:35.862Z,5.00
2022-11-05T00:35:02.637Z,5.10
2022-11-05T00:37:29.644Z,5.00
2022-11-05T00:39:56.333Z,5.00
2022-11-05T00:42:41.630Z,5.00
2022-11-05T00:45:08.533Z,5.20
2022-11-05T00:47:53.899Z,5.10
2022-11-05T00:50:21.192Z,5.10
2022-11-05T00:52:58.034Z,5.00
2022-11-05T00:55:24.868Z,4.90
2022-11-05T00:57:51.637Z,5.00
2022-11-05T01:00:18.546Z,5.00
2022-11-05T01:02:45.346Z,5.00
2022-11-05T01:05:12.627Z,4.90
2022-11-05T01:07:39.417Z,4.80
2022-11-05T01:10:06.334Z,4.80
2022-11-05T01:12:33.023Z,4.70
2022-11-05T01:15:00.346Z,4.70
2022-11-05T01:17:27.036Z,4.70
2022-11-05T01:19:53.665Z,4.70
2022-11-05T01:22:20.279Z,4.60
2022-11-05T01:24:46.932Z,4.50
2022-11-05T01:27:13.549Z,4.50
2022-11-05T01:29:40.240Z,4.50
2022-11-05T01:32:06.919Z,4.40
2022-11-05T01:34:34.190Z,4.70
2022-11-05T01:37:01.003Z,4.70
2022-11-05T01:39:27.632Z,4.90
2022-11-05T01:41:54.321Z,4.90
2022-11-05T01:44:40.111Z,4.80
2022-11-05T01:47:07.517Z,4.60
2022-11-05T01:49:34.404Z,4.50
2022-11-05T01:52:03.599Z,4.60
2022-11-05T01:54:31.446Z,4.60
2022-11-05T01:57:06.534Z,4.50
2022-11-05T01:59:43.098Z,4.60
2022-11-05T02:02:10.464Z,4.80
2022-11-05T02:04:43.493Z,4.70
2022-11-05T02:07:10.888Z,4.70
2022-11-05T02:09:55.978Z,4.70
2022-11-05T02:12:22.995Z,4.60
2022-11-05T02:14:49.650Z,4.40
2022-11-05T02:17:26.117Z,4.50
2022-11-05T02:19:55.746Z,4.40
2022-11-05T02:22:22.360Z,4.40
2022-11-05T02:25:12.342Z,4.40
2022-11-05T02:27:38.943Z,4.30
2022-11-05T02:30:25.574Z,4.30
2022-11-05T02:32:59.699Z,4.20
2022-11-05T02:35:35.572Z,4.10
2022-11-05T02:38:25.239Z,4.00
2022-11-05T02:41:03.703Z,4.10
2022-11-05T02:43:59.785Z,4.10
2022-11-05T02:46:26.738Z,4.00
2022-11-05T02:49:12.274Z,4.00
2022-11-05T02:51:59.247Z,3.90
2022-11-05T02:54:32.832Z,3.80
2022-11-05T02:57:00.365Z,3.60
2022-11-05T02:59:27.003Z,3.50
2022-11-05T03:01:54.092Z,3.50
2022-11-05T03:04:22.302Z,3.50
2022-11-05T03:06:54.922Z,3.80
2022-11-05T03:09:40.682Z,4.00
2022-11-05T03:12:26.243Z,4.00
2022-11-05T03:14:52.837Z,4.10
2022-11-05T03:17:19.469Z,4.00
2022-11-05T03:19:53.870Z,4.00
2022-11-05T03:22:25.989Z,3.90
2022-11-05T03:24:55.528Z,3.80
2022-11-05T03:27:31.289Z,3.70
2022-11-05T03:30:02.893Z,3.60
2022-11-05T03:32:31.719Z,3.50
2022-11-05T03:35:03.468Z,3.30
2022-11-05T03:37:32.415Z,3.30
2022-11-05T03:40:00.348Z,3.40
2022-11-05T03:42:28.838Z,3.30
2022-11-05T03:44:57.535Z,3.20
2022-11-05T03:47:26.398Z,3.10
2022-11-05T03:49:58.310Z,3.10
2022-11-05T03:52:27.348Z,3.10
2022-11-05T03:54:54.069Z,3.30
2022-11-05T03:57:21.956Z,3.30
2022-11-05T03:59:49.937Z,3.40
2022-11-05T04:02:18.080Z,3.40
2022-11-05T04:04:44.830Z,3.50
2022-11-05T04:07:30.726Z,3.60
2022-11-05T04:10:16.323Z,3.80
2022-11-05T04:13:01.351Z,3.80
2022-11-05T04:15:29.645Z,3.70
2022-11-05T04:17:58.821Z,3.50
2022-11-05T04:20:44.729Z,3.50
2022-11-05T04:23:29.774Z,3.60
2022-11-05T04:25:56.528Z,3.60
2022-11-05T04:28:43.120Z,3.60
2022-11-05T04:31:09.764Z,3.60
2022-11-05T04:33:36.343Z,3.60
2022-11-05T04:36:02.986Z,3.60
2022-11-05T04:38:29.616Z,3.90
2022-11-05T04:41:11.787Z,3.80
2022-11-05T04:43:38.406Z,3.90
2022-11-05T04:46:05.081Z,3.90
2022-11-05T04:48:31.705Z,3.80
2022-11-05T04:50:58.333Z,3.80
2022-11-05T04:53:24.957Z,3.80
2022-11-05T04:55:51.605Z,3.80
2022-11-05T04:58:18.204Z,3.70
2022-11-05T05:00:44.887Z,3.70
2022-11-05T05:03:11.787Z,3.60
2022-11-05T05:05:38.710Z,3.60
2022-11-05T05:08:05.404Z,3.60
2022-11-05T05:10:32.496Z,3.50
2022-11-05T05:12:59.130Z,3.60
2022-11-05T05:15:25.738Z,3.90
2022-11-05T05:17:52.870Z,4.20
2022-11-05T05:20:38.899Z,4.30
2022-11-05T05:23:05.520Z,4.40
2022-11-05T05:25:32.160Z,4.40
2022-11-05T05:27:58.802Z,4.50
2022-11-05T05:30:25.576Z,4.60
2022-11-05T05:32:52.204Z,4.60
2022-11-05T05:35:18.855Z,4.70
2022-11-05T05:37:45.519Z,4.80
2022-11-05T05:40:12.164Z,4.90
2022-11-05T05:42:42.841Z,5.00
2022-11-05T05:45:10.670Z,4.60
2022-11-05T05:47:37.347Z,5.00
2022-11-05T05:50:04.300Z,5.10
2022-11-05T05:52:30.923Z,5.10
2022-11-05T05:54:57.603Z,5.20
2022-11-05T05:57:24.230Z,5.20
2022-11-05T05:59:50.856Z,5.30
2022-11-05T06:02:17.602Z,5.20
2022-11-05T06:04:44.270Z,5.30
2022-11-05T06:07:10.920Z,5.30
2022-11-05T06:09:37.563Z,5.30
2022-11-05T06:12:04.337Z,5.40
2022-11-05T06:14:30.995Z,5.40
2022-11-05T06:16:57.603Z,5.40
2022-11-05T06:19:24.269Z,5.50
2022-11-05T06:21:50.899Z,5.50
2022-11-05T06:24:17.541Z,5.60
2022-11-05T06:26:45.097Z,5.50
2022-11-05T06:29:11.718Z,5.30
2022-11-05T06:31:38.392Z,5.30
2022-11-05T06:34:05.031Z,5.20
2022-11-05T06:36:31.664Z,5.20
2022-11-05T06:38:58.279Z,5.10
2022-11-05T06:41:24.928Z,5.00
2022-11-05T06:43:51.606Z,5.10
2022-11-05T06:46:18.260Z,5.30
2022-11-05T06:48:44.892Z,5.50
2022-11-05T06:51:11.543Z,5.60
2022-11-05T06:53:38.203Z,5.70
2022-11-05T06:56:05.531Z,5.60
2022-11-05T06:58:32.393Z,5.70
2022-11-05T07:01:02.908Z,5.70
2022-11-05T07:03:29.999Z,5.70
2022-11-05T07:05:57.773Z,5.70
2022-11-05T07:08:24.443Z,5.80
2022-11-05T07:10:51.287Z,5.80
2022-11-05T07:13:17.897Z,5.80
2022-11-05T07:15:44.543Z,5.80
2022-11-05T07:18:11.132Z,5.80
2022-11-05T07:20:37.786Z,5.90
2022-11-05T07:23:05.797Z,5.90
2022-11-05T07:25:32.907Z,5.80
2022-11-05T07:27:59.976Z,5.90
2022-11-05T07:30:27.082Z,5.90
2022-11-05T07:32:53.778Z,6.00
2022-11-05T07:35:20.831Z,6.00
2022-11-05T07:37:48.483Z,6.00
2022-11-05T07:40:16.154Z,6.10
2022-11-05T07:42:43.672Z,6.10
2022-11-05T07:45:10.702Z,6.10
2022-11-05T07:47:38.744Z,6.20
2022-11-05T07:50:05.824Z,6.20
2022-11-05T07:52:32.706Z,6.20
2022-11-05T07:54:59.414Z,6.20
2022-11-05T07:57:26.154Z,6.20
2022-11-05T07:59:52.843Z,6.30
2022-11-05T08:02:19.689Z,6.30
2022-11-05T08:04:46.514Z,6.30
2022-11-05T08:07:13.148Z,6.30
2022-11-05T08:09:39.829Z,6.30
2022-11-05T08:12:06.693Z,6.40
2022-11-05T08:14:33.306Z,6.40
2022-11-05T08:16:59.935Z,6.50
2022-11-05T08:19:26.589Z,6.60
2022-11-05T08:21:53.222Z,6.60
2022-11-05T08:24:19.968Z,6.50
2022-11-05T08:26:46.608Z,6.60
2022-11-05T08:29:13.260Z,6.70
2022-11-05T08:31:39.903Z,6.80
2022-11-05T08:34:06.540Z,6.90
2022-11-05T08:36:34.416Z,6.90
2022-11-05T08:39:01.176Z,7.00
2022-11-05T08:41:27.789Z,7.10
2022-11-05T08:43:55.431Z,7.10
2022-11-05T08:46:22.711Z,7.00
2022-11-05T08:48:49.999Z,7.10
2022-11-05T08:51:16.895Z,7.10
2022-11-05T08:53:43.515Z,7.10
2022-11-05T08:56:10.233Z,7.10
2022-11-05T08:58:37.612Z,7.10
2022-11-05T09:01:05.363Z,7.10
2022-11-05T09:03:32.593Z,7.10
2022-11-05T09:05:59.233Z,7.30
2022-11-05T09:08:25.883Z,7.30
2022-11-05T09:10:52.556Z,7.30
2022-11-05T09:13:20.281Z,7.30
2022-11-05T09:15:48.188Z,7.40
2022-11-05T09:18:15.223Z,7.60
2022-11-05T09:20:42.305Z,7.60
2022-11-05T09:23:09.482Z,7.70
2022-11-05T09:25:36.481Z,7.80
2022-11-05T09:28:14.677Z,7.80
2022-11-05T09:30:43.506Z,7.80
2022-11-05T09:33:10.665Z,8.30
2022-11-05T09:35:38.437Z,8.10
2022-11-05T09:38:05.173Z,8.10
2022-11-05T09:40:33.173Z,8.20
2022-11-05T09:43:00.223Z,8.30
2022-11-05T09:45:28.294Z,8.60
2022-11-05T09:48:01.323Z,8.80
2022-11-05T09:50:40.421Z,9.10
2022-11-05T09:53:07.307Z,9.40
2022-11-05T09:55:37.101Z,9.50
2022-11-05T09:58:06.380Z,10.80
2022-11-05T10:00:33.924Z,12.20
2022-11-05T10:03:06.316Z,12.70
2022-11-05T10:05:33.911Z,12.90
2022-11-05T10:08:00.733Z,12.90
2022-11-05T10:10:47.707Z,12.30
2022-11-05T10:13:26.547Z,12.80
2022-11-05T10:16:03.950Z,12.60
2022-11-05T10:18:33.066Z,13.10
2022-11-05T10:21:00.082Z,14.00
2022-11-05T10:23:27.553Z,15.00
2022-11-05T10:25:56.418Z,15.20
2022-11-05T10:28:24.489Z,15.80
2022-11-05T10:30:52.758Z,16.30
2022-11-05T10:33:29.175Z,16.40
2022-11-05T10:35:59.290Z,16.80
2022-11-05T10:38:26.008Z,16.60
2022-11-05T10:40:52.688Z,16.90
2022-11-05T10:43:30.915Z,16.50
2022-11-05T10:46:08.490Z,16.20
2022-11-05T10:48:50.374Z,16.20
2022-11-05T10:51:17.500Z,16.90
2022-11-05T10:53:51.249Z,16.90
2022-11-05T10:56:32.628Z,16.30
2022-11-05T10:59:00.287Z,16.40
2022-11-05T11:01:27.112Z,16.80
2022-11-05T11:04:05.000Z,17.20
2022-11-05T11:06:33.088Z,18.00
2022-11-05T11:09:00.912Z,17.70
2022-11-05T11:11:30.682Z,16.70
2022-11-05T11:13:57.328Z,17.20
2022-11-05T11:16:26.218Z,17.90
2022-11-05T11:18:58.405Z,17.20
2022-11-05T11:21:26.267Z,17.20
2022-11-05T11:24:00.834Z,16.70
2022-11-05T11:26:29.501Z,17.40
2022-11-05T11:29:25.567Z,17.80
2022-11-05T11:31:56.805Z,18.30
2022-11-05T11:34:31.049Z,18.90
2022-11-05T11:37:04.177Z,19.30
2022-11-05T11:39:31.390Z,18.80
2022-11-05T11:42:00.102Z,18.80
2022-11-05T11:44:29.523Z,18.70
2022-11-05T11:47:02.174Z,18.80
2022-11-05T11:49:47.539Z,19.80
2022-11-05T11:52:15.762Z,19.40
2022-11-05T11:54:42.469Z,18.60
2022-11-05T11:57:20.570Z,16.60
2022-11-05T12:00:07.907Z,16.50
2022-11-05T12:02:54.801Z,17.70
2022-11-05T12:05:45.715Z,17.20
2022-11-05T12:08:18.377Z,17.80
2022-11-05T12:10:48.116Z,18.00
2022-11-05T12:13:20.979Z,18.00
2022-11-05T12:15:53.718Z,18.40
2022-11-05T12:18:20.439Z,18.60
2022-11-05T12:21:02.497Z,17.70
2022-11-05T12:23:29.139Z,18.00
2022-11-05T12:25:58.828Z,17.70
2022-11-05T12:29:12.156Z,18.20
2022-11-05T12:31:43.077Z,16.90
2022-11-05T12:34:09.653Z,15.10
2022-11-05T12:36:59.507Z,13.80
2022-11-05T12:39:39.881Z,14.30
2022-11-05T12:42:09.543Z,14.20
2022-11-05T12:45:00.383Z,14.10
2022-11-05T12:47:26.992Z,14.30
2022-11-05T12:50:12.430Z,14.10
2022-11-05T12:52:58.079Z,14.10
2022-11-05T12:55:25.770Z,13.70
2022-11-05T12:57:53.635Z,13.10
2022-11-05T13:00:24.315Z,12.70
2022-11-05T13:03:10.198Z,12.60
2022-11-05T13:05:37.212Z,12.80
2022-11-05T13:08:13.014Z,13.70
2022-11-05T13:10:42.873Z,15.00
2022-11-05T13:13:12.825Z,16.20
2022-11-05T13:15:41.263Z,16.10
2022-11-05T13:18:13.419Z,15.70
2022-11-05T13:20:42.185Z,15.10
2022-11-05T13:23:24.233Z,14.80
2022-11-05T13:25:53.566Z,14.30
2022-11-05T13:28:23.250Z,13.80
2022-11-05T13:30:55.111Z,13.50
2022-11-05T13:33:31.567Z,13.60
2022-11-05T13:36:24.500Z,13.60
2022-11-05T13:39:00.197Z,13.40
2022-11-05T13:41:29.832Z,13.20
2022-11-05T13:44:15.240Z,12.90
2022-11-05T13:46:47.473Z,12.80
2022-11-05T13:49:18.742Z,13.00
2022-11-05T13:51:51.008Z,13.20
2022-11-05T13:54:17.806Z,13.60
2022-11-05T13:56:50.460Z,13.70
2022-11-05T13:59:17.093Z,13.50
2022-11-05T14:01:43.910Z,13.30
2022-11-05T14:04:20.586Z,13.80
2022-11-05T14:06:47.311Z,13.80
2022-11-05T14:09:19.449Z,13.60
2022-11-05T14:11:51.228Z,13.50
2022-11-05T14:14:19.308Z,13.10
2022-11-05T14:16:45.941Z,12.60
2022-11-05T14:19:12.555Z,12.30
2022-11-05T14:22:08.659Z,12.00
2022-11-05T14:24:38.445Z,11.80
2022-11-05T14:27:05.121Z,11.60
2022-11-05T14:29:38.125Z,11.40
2022-11-05T14:32:17.027Z,11.30
2022-11-05T14:34:45.281Z,11.30
2022-11-05T14:37:12.504Z,11.10
2022-11-05T14:39:40.057Z,11.10
2022-11-05T14:42:25.084Z,11.00
2022-11-05T14:44:54.795Z,11.00
2022-11-05T14:47:22.452Z,10.90
2022-11-05T14:49:55.189Z,10.80
2022-11-05T14:52:21.980Z,10.90
2022-11-05T14:54:50.034Z,10.80
2022-11-05T14:57:36.631Z,10.90
2022-11-05T15:00:04.066Z,10.80
2022-11-05T15:02:38.398Z,10.90
2022-11-05T15:05:25.020Z,10.90
2022-11-05T15:07:55.856Z,10.80
2022-11-05T15:10:26.447Z,10.60
2022-11-05T15:12:56.602Z,10.50
2022-11-05T15:15:30.124Z,10.50
2022-11-05T15:18:02.859Z,10.40
2022-11-05T15:20:49.727Z,10.30
2022-11-05T15:23:18.004Z,10.20
2022-11-05T15:26:03.574Z,10.10
2022-11-05T15:28:49.961Z,10.30
2022-11-05T15:31:16.589Z,10.00
2022-11-05T15:33:44.625Z,9.90
2022-11-05T15:36:17.725Z,9.90
2022-11-05T15:38:56.864Z,9.80
2022-11-05T15:41:33.807Z,9.80
2022-11-05T15:44:02.150Z,9.70
2022-11-05T15:46:29.169Z,9.70
2022-11-05T15:49:00.378Z,9.60
2022-11-05T15:51:27.060Z,9.50
2022-11-05T15:54:16.052Z,9.50
2022-11-05T15:56:53.748Z,9.50
2022-11-05T15:59:21.621Z,9.40
2022-11-05T16:01:48.461Z,9.30
2022-11-05T16:04:22.525Z,8.60
2022-11-05T16:06:50.996Z,9.10
2022-11-05T16:09:23.504Z,9.10
2022-11-05T16:11:53.751Z,9.10
2022-11-05T16:14:20.444Z,9.20
2022-11-05T16:16:47.220Z,9.10
2022-11-05T16:19:39.892Z,9.10
2022-11-05T16:22:07.190Z,9.10
2022-11-05T16:24:33.848Z,9.00
2022-11-05T16:27:03.777Z,9.00
2022-11-05T16:29:30.634Z,9.00
2022-11-05T16:31:57.979Z,9.00
2022-11-05T16:34:26.774Z,8.90
2022-11-05T16:36:54.240Z,8.90
2022-11-05T16:39:20.885Z,8.90
2022-11-05T16:41:48.458Z,8.90
2022-11-05T16:44:15.481Z,8.90
2022-11-05T16:46:47.416Z,9.00
2022-11-05T16:49:14.544Z,8.90
2022-11-05T16:51:41.481Z,8.80
2022-11-05T16:54:08.128Z,8.80
2022-11-05T16:56:34.964Z,8.80
2022-11-05T16:59:02.093Z,8.90
2022-11-05T17:01:29.078Z,8.70
2022-11-05T17:03:55.793Z,8.80
2022-11-05T17:06:22.465Z,8.80
2022-11-05T17:08:49.331Z,8.80
2022-11-05T17:11:17.823Z,8.80
2022-11-05T17:13:44.854Z,8.70
2022-11-05T17:16:12.794Z,8.70
2022-11-05T17:18:40.481Z,8.80
2022-11-05T17:21:07.821Z,8.70
2022-11-05T17:23:34.833Z,8.70
2022-11-05T17:26:02.707Z,8.70
2022-11-05T17:28:30.440Z,8.70
2022-11-05T17:30:59.214Z,8.70
2022-11-05T17:33:25.993Z,8.70
2022-11-05T17:35:53.044Z,8.70
2022-11-05T17:38:20.064Z,8.60
2022-11-05T17:40:46.732Z,8.60
2022-11-05T17:43:13.733Z,8.50
2022-11-05T17:45:41.732Z,8.50
2022-11-05T17:48:09.356Z,8.50
2022-11-05T17:50:39.239Z,8.50
2022-11-05T17:53:05.884Z,8.50
2022-11-05T17:55:33.068Z,8.50
2022-11-05T17:57:59.816Z,8.50
2022-11-05T18:00:26.512Z,8.50
2022-11-05T18:02:53.655Z,8.50
2022-11-05T18:05:21.654Z,8.60
2022-11-05T18:07:48.999Z,8.60
2022-11-05T18:10:15.985Z,8.60
2022-11-05T18:12:42.853Z,8.70
2022-11-05T18:15:09.698Z,8.70
2022-11-05T18:17:36.598Z,8.60
2022-11-05T18:20:04.196Z,8.60
2022-11-05T18:22:30.855Z,8.60
2022-11-05T18:24:57.523Z,8.70
2022-11-05T18:27:27.524Z,8.70
2022-11-05T18:47:44.636Z,8.70
2022-11-05T18:50:11.273Z,8.70
2022-11-05T18:52:37.942Z,8.80
2022-11-05T18:55:05.102Z,12.00
2022-11-05T18:57:32.939Z,8.60
2022-11-05T18:59:59.693Z,8.70
2022-11-05T19:02:26.503Z,8.70
2022-11-05T19:05:26.881Z,8.60
2022-11-05T19:07:40.115Z,8.70
2022-11-05T19:10:07.125Z,8.80
2022-11-05T19:12:33.855Z,8.80
2022-11-05T19:15:02.859Z,8.80
2022-11-05T19:17:31.664Z,8.80
2022-11-05T19:19:58.444Z,8.70
2022-11-05T19:22:26.002Z,8.70
2022-11-05T19:24:52.885Z,8.70
2022-11-05T19:27:20.086Z,8.70
2022-11-05T19:29:47.318Z,8.70
2022-11-05T19:32:14.117Z,8.70
2022-11-05T19:34:40.861Z,8.70
2022-11-05T19:37:08.225Z,8.60
2022-11-05T19:39:35.501Z,8.60
2022-11-05T19:42:04.028Z,8.60
2022-11-05T19:44:31.452Z,8.50
2022-11-05T19:46:58.162Z,8.50
2022-11-05T19:49:24.846Z,8.60
2022-11-05T19:51:51.598Z,8.60
2022-11-05T19:54:18.500Z,8.60
2022-11-05T19:56:45.842Z,8.70
2022-11-05T19:59:12.895Z,8.70
2022-11-05T20:01:39.662Z,8.70
2022-11-05T20:04:06.584Z,10.30
2022-11-05T20:06:39.911Z,8.70
2022-11-05T20:09:27.202Z,8.60
2022-11-05T20:11:56.115Z,8.60
2022-11-05T20:14:24.076Z,8.60
2022-11-05T20:16:51.198Z,8.70
2022-11-05T20:19:19.288Z,8.70
2022-11-05T20:21:46.061Z,8.70
2022-11-05T20:24:16.146Z,8.60
2022-11-05T20:26:45.368Z,8.60
2022-11-05T20:29:13.016Z,8.60
2022-11-05T20:31:39.690Z,8.70
2022-11-05T20:34:06.444Z,8.70
2022-11-05T20:36:33.146Z,8.60
2022-11-05T20:38:59.919Z,8.70
2022-11-05T20:41:26.764Z,8.70
2022-11-05T20:43:53.629Z,8.70
2022-11-05T20:46:21.316Z,8.70
2022-11-05T20:48:48.030Z,8.70
2022-11-05T20:51:16.092Z,8.70
2022-11-05T20:53:43.794Z,8.60
2022-11-05T20:56:17.867Z,8.60
2022-11-05T20:58:44.674Z,8.60
2022-11-05T21:01:12.658Z,8.50
2022-11-05T21:03:39.719Z,8.50
2022-11-05T21:06:06.514Z,8.40
2022-11-05T21:08:33.563Z,8.40
2022-11-05T21:11:00.591Z,8.40
2022-11-05T21:13:27.505Z,8.30
2022-11-05T21:15:55.131Z,8.30
2022-11-05T21:18:25.483Z,8.30
2022-11-05T21:20:52.252Z,8.30
2022-11-05T21:23:19.066Z,8.40
2022-11-05T21:25:45.713Z,8.40
2022-11-05T21:28:13.497Z,8.40
2022-11-05T21:30:42.309Z,8.40
2022-11-05T21:33:09.307Z,8.40
2022-11-05T21:35:39.992Z,8.40
2022-11-05T21:38:06.929Z,8.50
2022-11-05T21:40:33.587Z,8.50
2022-11-05T21:43:00.257Z,8.60
2022-11-05T21:45:26.986Z,8.60
2022-11-05T21:47:53.636Z,8.60
2022-11-05T21:50:40.257Z,8.60
2022-11-05T21:53:27.192Z,8.70
2022-11-05T21:56:12.451Z,8.60
2022-11-05T21:58:57.932Z,8.70
2022-11-05T22:01:24.627Z,8.70
2022-11-05T22:03:51.337Z,8.70
2022-11-05T22:06:18.019Z,8.70
2022-11-05T22:08:44.694Z,8.70
2022-11-05T22:11:11.364Z,8.70
2022-11-05T22:13:38.245Z,8.70
2022-11-05T22:16:05.049Z,8.70
2022-11-05T22:18:31.724Z,8.70
2022-11-05T22:20:58.353Z,8.70
2022-11-05T22:23:24.995Z,8.70
2022-11-05T22:25:58.156Z,8.60
2022-11-05T22:28:24.784Z,8.60
2022-11-05T22:30:51.475Z,8.70
2022-11-05T22:33:18.137Z,8.60
2022-11-05T22:35:44.771Z,8.60
2022-11-05T22:38:12.659Z,8.60
2022-11-05T22:40:39.586Z,8.50
2022-11-05T22:43:06.303Z,8.50
2022-11-05T22:45:35.183Z,8.50
2022-11-05T22:48:06.508Z,8.60
2022-11-05T22:50:33.554Z,8.50
2022-11-05T22:53:00.230Z,8.50
2022-11-05T22:55:26.908Z,8.40
2022-11-05T22:57:53.563Z,8.40
2022-11-05T23:00:20.491Z,8.50
2022-11-05T23:02:47.316Z,8.40
2022-11-05T23:05:15.818Z,8.10
2022-11-05T23:08:01.271Z,8.40
2022-11-05T23:10:46.401Z,8.40
2022-11-05T23:13:13.035Z,8.50
2022-11-05T23:15:58.377Z,8.20
2022-11-05T23:18:43.507Z,8.50
2022-11-05T23:21:28.819Z,8.50
2022-11-05T23:24:04.244Z,8.60
2022-11-05T23:26:50.118Z,8.60
2022-11-05T23:29:17.802Z,8.60
2022-11-05T23:32:02.944Z,8.50
2022-11-05T23:34:29.666Z,8.50
2022-11-05T23:37:14.970Z,8.50
2022-11-05T23:39:43.009Z,8.50
2022-11-05T23:42:28.388Z,8.80
2022-11-05T23:45:14.862Z,8.60
2022-11-05T23:48:00.418Z,8.60
2022-11-05T23:50:27.085Z,7.70
2022-11-05T23:52:53.837Z,8.60
2022-11-05T23:55:20.836Z,8.60
2022-11-05T23:57:47.692Z,8.50
